Time;durP1;ratioP1;P1;durP2;ratioP2;P2;SDS_P1;SDS_P2;PMS_P1;PMS_P2;Temp;Humidity;BMP_temperature;BMP_pressure;BME280_temperature;BME280_humidity;BME280_pressure;Samples;Min_cycle;Max_cycle;Signal;HPM_P1;HPM_P2
2022/07/23 00:00:47;;;;;;;13.60;11.20;;;;;;;23.41;61.86;100360.02;105413;1277;95145;-81
2022/07/23 00:03:15;;;;;;;14.20;11.00;;;;;;;23.36;61.73;100362.86;105312;1277;140642;-81
2022/07/23 00:05:43;;;;;;;14.10;10.70;;;;;;;23.32;62.04;100358.86;105360;1276;98055;-82
2022/07/23 00:08:11;;;;;;;12.80;10.50;;;;;;;23.32;61.83;100359.75;105245;1277;138329;-81
2022/07/23 00:10:41;;;;;;;13.00;11.10;;;;;;;23.31;61.97;100360.57;105156;1276;95296;-81
2022/07/23 00:13:09;;;;;;;13.00;11.10;;;;;;;23.30;61.84;100358.86;105214;1277;95700;-81
2022/07/23 00:15:37;;;;;;;13.60;11.00;;;;;;;23.26;61.79;100360.60;105129;1277;139058;-81
2022/07/23 00:18:05;;;;;;;13.10;9.90;;;;;;;23.23;61.99;100357.80;105298;1277;99948;-81
2022/07/23 00:20:33;;;;;;;13.20;10.50;;;;;;;23.21;62.13;100358.80;105160;1276;138256;-82
2022/07/23 00:23:01;;;;;;;13.50;10.30;;;;;;;23.21;62.18;100359.70;105253;1276;95257;-81
2022/07/23 00:25:29;;;;;;;12.70;10.70;;;;;;;23.19;62.01;100358.03;105219;1276;95196;-81
2022/07/23 00:28:00;;;;;;;15.20;11.10;;;;;;;23.17;62.04;100359.11;105307;1276;110007;-81
2022/07/23 00:30:30;;;;;;;13.70;10.30;;;;;;;23.15;62.69;100361.30;105186;1277;99428;-83
2022/07/23 00:33:01;;;;;;;13.60;11.10;;;;;;;23.13;62.70;100364.48;105021;1276;140167;-81
2022/07/23 00:35:35;;;;;;;13.10;10.70;;;;;;;23.11;62.57;100364.49;105277;1276;95995;-81
2022/07/23 00:38:04;;;;;;;13.70;10.70;;;;;;;23.10;62.58;100364.90;105385;1277;141053;-81
2022/07/23 00:40:34;;;;;;;12.30;10.40;;;;;;;23.08;62.53;100364.02;106789;1276;110551;-84
2022/07/23 00:43:02;;;;;;;13.70;10.00;;;;;;;23.03;62.74;100361.62;107561;1276;98810;-82
2022/07/23 00:45:31;;;;;;;11.60;10.00;;;;;;;23.04;62.68;100360.12;107237;1276;139903;-82
2022/07/23 00:48:00;;;;;;;11.80;10.10;;;;;;;23.06;62.86;100359.24;105266;1277;95372;-82
2022/07/23 00:50:29;;;;;;;13.60;11.20;;;;;;;23.05;62.64;100358.21;105054;1276;140200;-82
2022/07/23 00:52:57;;;;;;;15.60;10.90;;;;;;;23.04;62.58;100362.52;105295;1276;110200;-81
2022/07/23 00:55:25;;;;;;;12.70;10.60;;;;;;;23.04;62.52;100360.98;105315;1276;100290;-82
2022/07/23 00:57:55;;;;;;;12.60;10.90;;;;;;;23.09;62.44;100363.22;105148;1277;138206;-81
2022/07/23 01:00:25;;;;;;;14.90;11.10;;;;;;;23.06;62.40;100364.73;105288;1276;95030;-83
2022/07/23 01:02:53;;;;;;;14.50;10.90;;;;;;;23.00;62.46;100361.02;105202;1276;139290;-81
2022/07/23 01:05:25;;;;;;;12.90;10.80;;;;;;;22.96;62.76;100362.42;105319;1276;109441;-81
2022/07/23 01:07:53;;;;;;;15.20;11.20;;;;;;;22.93;62.85;100359.73;105166;1276;141087;-81
2022/07/23 01:10:30;;;;;;;13.70;11.30;;;;;;;22.91;62.72;100363.92;105184;1278;107458;-81
2022/07/23 01:13:10;;;;;;;12.60;11.10;;;;;;;22.86;62.72;100367.30;105314;1276;95201;-81
2022/07/23 01:15:39;;;;;;;13.20;11.00;;;;;;;22.83;62.84;100366.12;105139;1276;139090;-81
2022/07/23 01:18:08;;;;;;;13.60;11.20;;;;;;;22.79;62.98;100365.20;105288;1277;109751;-83
2022/07/23 01:20:38;;;;;;;13.00;10.90;;;;;;;22.76;62.98;100369.02;105201;1276;139279;-82
2022/07/23 01:23:07;;;;;;;13.60;11.50;;;;;;;22.74;62.89;100370.25;105202;1276;109726;-81
2022/07/23 01:25:36;;;;;;;15.20;11.10;;;;;;;22.73;63.18;100368.70;105153;1278;138429;-80
2022/07/23 01:28:06;;;;;;;16.00;11.50;;;;;;;22.71;63.42;100373.38;105245;1277;95212;-82
2022/07/23 01:30:33;;;;;;;13.40;10.50;;;;;;;22.63;63.23;100374.39;105257;1278;110297;-81
2022/07/23 01:33:05;;;;;;;14.30;11.10;;;;;;;22.54;63.19;100376.55;105023;1277;141409;-82
2022/07/23 01:35:33;;;;;;;12.20;10.30;;;;;;;22.53;63.36;100372.94;105246;1277;108498;-80
2022/07/23 01:38:04;;;;;;;14.70;10.70;;;;;;;22.56;63.35;100373.32;105177;1277;138263;-82
2022/07/23 01:40:32;;;;;;;14.10;10.90;;;;;;;22.61;63.00;100371.86;105297;1277;95557;-82
2022/07/23 01:43:02;;;;;;;14.40;10.60;;;;;;;22.62;62.88;100372.48;105352;1276;110603;-80
2022/07/23 01:45:31;;;;;;;14.80;10.70;;;;;;;22.63;62.72;100376.56;105212;1277;138570;-81
2022/07/23 01:47:59;;;;;;;14.50;11.30;;;;;;;22.58;62.74;100373.89;105226;1276;109657;-82
2022/07/23 01:50:27;;;;;;;13.30;10.70;;;;;;;22.51;62.86;100372.23;105139;1276;138984;-80
2022/07/23 01:53:21;;;;;;;14.30;10.40;;;;;;;22.42;62.96;100371.83;105320;1276;95141;-81
2022/07/23 01:55:49;;;;;;;13.50;10.80;;;;;;;22.34;63.33;100370.25;105241;1277;140055;-80
2022/07/23 01:58:18;;;;;;;14.50;10.30;;;;;;;22.27;63.53;100370.05;105335;1277;99887;-80
2022/07/23 02:00:45;;;;;;;14.70;11.00;;;;;;;22.25;63.59;100371.10;105308;1276;109253;-80
2022/07/23 02:03:13;;;;;;;15.90;10.80;;;;;;;22.25;63.40;100369.83;105143;1277;140010;-82
2022/07/23 02:05:41;;;;;;;14.40;10.70;;;;;;;22.21;63.48;100368.88;105326;1276;95233;-80
2022/07/23 02:08:09;;;;;;;14.50;10.90;;;;;;;22.24;63.31;100362.66;105205;1277;142114;-81
2022/07/23 02:10:39;;;;;;;13.40;10.00;;;;;;;22.20;63.38;100362.28;105261;1277;99025;-82
2022/07/23 02:13:07;;;;;;;14.40;10.40;;;;;;;22.10;63.78;100365.15;105359;1276;110096;-81
2022/07/23 02:15:35;;;;;;;17.90;10.90;;;;;;;22.06;64.06;100362.38;105184;1276;140768;-81
2022/07/23 02:18:03;;;;;;;15.50;10.40;;;;;;;22.05;64.04;100362.08;105168;1277;95175;-81
2022/07/23 02:20:31;;;;;;;12.60;9.90;;;;;;;22.03;64.29;100363.14;105395;1276;139843;-82
2022/07/23 02:22:59;;;;;;;12.80;9.90;;;;;;;22.03;64.12;100361.32;105486;1276;100142;-83
2022/07/23 02:25:27;;;;;;;14.40;11.20;;;;;;;22.04;63.95;100364.70;105359;1276;107584;-81
2022/07/23 02:27:58;;;;;;;14.30;11.40;;;;;;;22.00;63.81;100359.58;105613;1276;95748;-81
2022/07/23 02:30:29;;;;;;;14.50;11.20;;;;;;;21.98;64.15;100359.21;105193;1277;95122;-81
2022/07/23 02:32:57;;;;;;;14.00;10.40;;;;;;;21.93;64.64;100356.52;105084;1277;140453;-81
2022/07/23 02:35:25;;;;;;;14.10;10.60;;;;;;;21.87;64.66;100354.92;105234;1277;99001;-81
2022/07/23 02:37:53;;;;;;;13.30;10.30;;;;;;;21.87;64.45;100352.25;105308;1276;139281;-82
2022/07/23 02:40:21;;;;;;;15.90;10.50;;;;;;;21.83;64.46;100351.23;105469;1276;95303;-80
2022/07/23 02:42:49;;;;;;;14.10;10.90;;;;;;;21.81;64.94;100349.20;105659;1277;95006;-82
2022/07/23 02:45:17;;;;;;;13.90;10.00;;;;;;;21.80;64.90;100348.38;105522;1276;139281;-81
2022/07/23 02:47:45;;;;;;;13.50;10.10;;;;;;;21.83;64.81;100346.00;105512;1276;97321;-83
2022/07/23 02:50:13;;;;;;;14.20;10.20;;;;;;;21.85;65.01;100344.63;105341;1276;138678;-81
2022/07/23 02:52:41;;;;;;;13.80;11.10;;;;;;;21.79;64.99;100343.80;105580;1276;95269;-81
2022/07/23 02:55:10;;;;;;;13.50;10.60;;;;;;;21.72;65.10;100341.03;105604;1276;95478;-82
2022/07/23 02:57:38;;;;;;;13.30;10.20;;;;;;;21.70;65.17;100346.27;105424;1276;139523;-82
2022/07/23 03:00:07;;;;;;;15.50;10.00;;;;;;;21.73;65.13;100346.91;105612;1276;97799;-82
2022/07/23 03:02:35;;;;;;;13.10;10.00;;;;;;;21.76;65.12;100342.95;105460;1276;139851;-83
2022/07/23 03:05:05;;;;;;;14.60;10.90;;;;;;;21.75;65.28;100345.16;105670;1276;95105;-82
2022/07/23 03:07:34;;;;;;;13.90;10.60;;;;;;;21.70;65.20;100341.03;105577;1276;139906;-81
2022/07/23 03:10:03;;;;;;;14.30;10.20;;;;;;;21.66;65.33;100339.85;105740;1276;108675;-81
2022/07/23 03:12:31;;;;;;;13.00;10.10;;;;;;;21.66;65.34;100339.47;105654;1276;99856;-81
2022/07/23 03:14:59;;;;;;;14.20;10.30;;;;;;;21.75;65.14;100343.16;105513;1276;142723;-81
2022/07/23 03:17:27;;;;;;;14.40;11.10;;;;;;;21.79;65.19;100346.67;105540;1277;95256;-81
2022/07/23 03:19:55;;;;;;;16.10;11.30;;;;;;;21.75;65.40;100346.22;105293;1276;139144;-81
2022/07/23 03:22:24;;;;;;;14.30;11.20;;;;;;;21.77;65.08;100349.39;105497;1276;110246;-82
2022/07/23 03:24:54;;;;;;;17.30;12.60;;;;;;;21.77;65.59;100349.55;105338;1277;98383;-81
2022/07/23 03:27:30;;;;;;;15.20;11.10;;;;;;;21.72;65.66;100351.52;105421;1276;140875;-82
2022/07/23 03:30:00;;;;;;;16.00;12.60;;;;;;;21.69;65.71;100351.34;105422;1276;95338;-82
2022/07/23 03:32:28;;;;;;;20.00;12.20;;;;;;;21.69;65.60;100350.64;105471;1277;139882;-81
2022/07/23 03:34:57;;;;;;;16.20;12.40;;;;;;;21.77;65.16;100352.39;105449;1277;109423;-80
2022/07/23 03:37:26;;;;;;;18.00;12.90;;;;;;;21.84;64.94;100351.92;105425;1276;100292;-81
2022/07/23 03:39:57;;;;;;;18.70;13.20;;;;;;;21.91;64.61;100352.65;105260;1279;140070;-81
2022/07/23 03:42:25;;;;;;;18.80;13.50;;;;;;;22.00;64.18;100354.19;105473;1276;95212;-81
2022/07/23 03:44:55;;;;;;;17.10;13.00;;;;;;;22.06;64.02;100358.02;105401;1276;139824;-80
2022/07/23 03:47:22;;;;;;;15.90;12.20;;;;;;;22.12;63.97;100358.52;105507;1276;110652;-81
2022/07/23 03:49:51;;;;;;;16.90;13.60;;;;;;;22.11;64.23;100362.22;105334;1277;141669;-81
2022/07/23 03:52:19;;;;;;;17.60;13.30;;;;;;;22.13;63.82;100366.01;105508;1277;108576;-82
2022/07/23 03:54:48;;;;;;;16.40;13.20;;;;;;;22.12;63.94;100364.65;105171;1277;95442;-82
2022/07/23 03:57:17;;;;;;;17.40;13.00;;;;;;;22.17;63.68;100367.70;105094;1277;140650;-83
2022/07/23 03:59:47;;;;;;;16.20;13.40;;;;;;;22.21;63.88;100370.66;105561;1276;108763;-81
2022/07/23 04:02:15;;;;;;;16.50;13.50;;;;;;;22.20;63.44;100371.23;105426;1276;140769;-80
2022/07/23 04:04:43;;;;;;;17.10;14.00;;;;;;;22.17;63.33;100363.20;105343;1277;108342;-80
2022/07/23 04:07:11;;;;;;;16.80;13.20;;;;;;;22.19;63.29;100364.83;105398;1276;95643;-81
2022/07/23 04:09:42;;;;;;;16.50;13.00;;;;;;;22.26;63.20;100364.19;105324;1276;141021;-82
2022/07/23 04:12:14;;;;;;;15.80;12.90;;;;;;;22.30;63.28;100365.98;105272;1276;109754;-80
2022/07/23 04:14:42;;;;;;;16.10;12.80;;;;;;;22.37;63.21;100361.13;105200;1277;140859;-81
2022/07/23 04:17:12;;;;;;;16.10;13.00;;;;;;;22.43;63.07;100360.69;105042;1277;109409;-81
2022/07/23 04:19:41;;;;;;;15.50;11.90;;;;;;;22.49;62.92;100360.65;105102;1278;142333;-81
2022/07/23 04:22:11;;;;;;;15.10;12.20;;;;;;;22.46;62.85;100358.87;105650;1276;95752;-84
2022/07/23 04:24:39;;;;;;;16.50;13.20;;;;;;;22.44;62.69;100358.30;105630;1276;109836;-83
2022/07/23 04:27:08;;;;;;;16.50;12.50;;;;;;;22.46;62.62;100362.46;105525;1276;141544;-81
2022/07/23 04:29:36;;;;;;;17.70;14.00;;;;;;;22.49;62.60;100357.87;105481;1277;108857;-81
2022/07/23 04:32:05;;;;;;;15.60;12.30;;;;;;;22.58;62.38;100362.14;105495;1276;141516;-81
2022/07/23 04:34:33;;;;;;;16.70;12.20;;;;;;;22.62;62.48;100362.87;105298;1277;94427;-81
2022/07/23 04:37:01;;;;;;;15.00;12.60;;;;;;;22.63;62.37;100355.94;105404;1276;110262;-82
2022/07/23 04:39:30;;;;;;;16.20;13.20;;;;;;;22.63;62.27;100359.21;105513;1276;141215;-82
2022/07/23 04:41:58;;;;;;;16.60;13.20;;;;;;;22.66;62.12;100359.09;105510;1276;109266;-81
2022/07/23 04:44:27;;;;;;;15.70;12.50;;;;;;;22.72;62.02;100358.86;105181;1276;140936;-81
2022/07/23 04:46:55;;;;;;;14.90;12.20;;;;;;;22.79;62.14;100354.30;105434;1276;97083;-81
2022/07/23 04:49:24;;;;;;;15.50;12.30;;;;;;;22.84;61.98;100351.71;105549;1276;109147;-81
2022/07/23 04:51:52;;;;;;;16.00;12.40;;;;;;;22.89;61.74;100353.86;105159;1276;139203;-82
2022/07/23 04:54:20;;;;;;;16.50;12.60;;;;;;;22.98;61.46;100354.79;105257;1277;109552;-81
2022/07/23 04:56:48;;;;;;;16.70;12.70;;;;;;;23.07;61.24;100355.94;105300;1276;142639;-82
2022/07/23 04:59:15;;;;;;;15.30;12.70;;;;;;;23.09;61.06;100355.03;105593;1276;95190;-82
2022/07/23 05:01:47;;;;;;;16.80;12.20;;;;;;;23.13;61.08;100356.02;105716;1276;139401;-83
2022/07/23 05:04:15;;;;;;;15.10;12.20;;;;;;;23.18;60.88;100360.13;105476;1276;99573;-81
2022/07/23 05:06:43;;;;;;;15.30;11.70;;;;;;;23.27;60.87;100362.70;105675;1276;108893;-83
2022/07/23 05:09:11;;;;;;;15.00;12.50;;;;;;;23.36;60.67;100364.33;105665;1276;139906;-81
2022/07/23 05:11:40;;;;;;;15.90;11.90;;;;;;;23.40;60.45;100364.20;105634;1277;95431;-81
2022/07/23 05:14:08;;;;;;;15.20;12.70;;;;;;;23.41;60.47;100361.98;105873;1276;140423;-82
2022/07/23 05:16:36;;;;;;;15.40;11.60;;;;;;;23.46;60.14;100364.81;106412;1276;100115;-82
2022/07/23 05:19:08;;;;;;;16.30;11.60;;;;;;;23.54;60.28;100358.89;106424;1276;107383;-81
2022/07/23 05:21:36;;;;;;;15.10;12.80;;;;;;;23.62;59.88;100355.67;106755;1277;140944;-81
2022/07/23 05:24:05;;;;;;;15.00;12.20;;;;;;;23.72;59.58;100355.45;107621;1276;93463;-82
2022/07/23 05:26:33;;;;;;;13.80;11.70;;;;;;;23.80;59.52;100354.05;107342;1277;138528;-82
2022/07/23 05:29:01;;;;;;;14.50;12.50;;;;;;;23.90;59.41;100359.64;105566;1276;98900;-81
2022/07/23 05:31:30;;;;;;;14.60;11.50;;;;;;;23.99;59.15;100359.58;105494;1276;108293;-81
2022/07/23 05:33:58;;;;;;;16.80;12.50;;;;;;;24.09;58.99;100357.83;105679;1277;95955;-81
2022/07/23 05:36:26;;;;;;;15.00;12.00;;;;;;;24.15;58.93;100356.41;105545;1276;95830;-82
2022/07/23 05:38:56;;;;;;;14.50;11.70;;;;;;;24.19;58.48;100355.19;105430;1276;139995;-84
2022/07/23 05:41:27;;;;;;;14.60;11.40;;;;;;;24.25;58.20;100353.05;105702;1276;97090;-82
2022/07/23 05:43:55;;;;;;;14.80;12.00;;;;;;;24.29;57.98;100346.77;105493;1276;138646;-83
2022/07/23 05:46:23;;;;;;;15.00;11.50;;;;;;;24.35;57.72;100344.45;105576;1276;95744;-82
2022/07/23 05:48:53;;;;;;;15.00;11.90;;;;;;;24.44;57.97;100347.05;105737;1276;95101;-82
2022/07/23 05:51:45;;;;;;;14.20;11.50;;;;;;;24.55;57.55;100347.98;105472;1276;139477;-82
2022/07/23 05:54:14;;;;;;;15.10;11.50;;;;;;;24.60;57.16;100345.38;105571;1276;99995;-82
2022/07/23 05:56:42;;;;;;;14.10;11.00;;;;;;;24.65;57.05;100342.03;105374;1276;141271;-82
2022/07/23 05:59:11;;;;;;;13.60;11.40;;;;;;;24.72;56.82;100341.63;105365;1277;95336;-82
2022/07/23 06:01:40;;;;;;;15.50;11.20;;;;;;;24.79;56.58;100340.86;105389;1276;140641;-83
2022/07/23 06:04:10;;;;;;;14.50;10.90;;;;;;;24.83;56.45;100342.13;105563;1276;107415;-84
2022/07/23 06:06:42;;;;;;;13.60;10.70;;;;;;;24.86;56.58;100341.71;105596;1276;100621;-82
2022/07/23 06:09:13;;;;;;;14.00;10.50;;;;;;;24.91;56.64;100342.56;105583;1276;140585;-81
2022/07/23 06:11:41;;;;;;;13.30;11.30;;;;;;;24.96;56.72;100344.08;105467;1276;95314;-84
2022/07/23 06:14:09;;;;;;;14.00;11.30;;;;;;;25.01;56.54;100340.02;105473;1276;153134;-84
2022/07/23 06:16:50;;;;;;;13.30;11.40;;;;;;;25.06;56.53;100337.92;105668;1276;109745;-84
2022/07/23 06:19:18;;;;;;;13.30;11.30;;;;;;;25.10;56.77;100334.67;105850;1276;97880;-84
2022/07/23 06:21:46;;;;;;;15.70;11.20;;;;;;;25.10;56.78;100340.66;105541;1276;140174;-83
2022/07/23 06:24:16;;;;;;;15.30;11.00;;;;;;;25.17;56.38;100342.08;105629;1276;95287;-81
2022/07/23 06:26:44;;;;;;;13.90;11.00;;;;;;;25.25;56.41;100339.77;105397;1276;141122;-81
2022/07/23 06:29:12;;;;;;;13.00;10.50;;;;;;;25.32;56.02;100342.73;105665;1276;109111;-83
2022/07/23 06:31:42;;;;;;;14.70;10.90;;;;;;;25.40;56.29;100340.27;105579;1276;140581;-82
2022/07/23 06:34:11;;;;;;;14.30;10.40;;;;;;;25.47;56.42;100335.41;105639;1277;108706;-82
2022/07/23 06:36:38;;;;;;;11.90;9.70;;;;;;;25.52;56.34;100338.27;105589;1276;96068;-81
2022/07/23 06:39:10;;;;;;;12.00;9.40;;;;;;;25.58;55.88;100339.40;105577;1276;138702;-83
2022/07/23 06:41:38;;;;;;;12.80;9.70;;;;;;;25.62;55.39;100338.59;105405;1277;109716;-82
2022/07/23 06:44:06;;;;;;;13.60;9.20;;;;;;;25.69;55.17;100345.80;105353;1276;142202;-82
2022/07/23 06:46:35;;;;;;;11.60;8.90;;;;;;;25.75;54.96;100345.42;105681;1276;108836;-80
2022/07/23 06:49:04;;;;;;;12.50;9.30;;;;;;;25.80;54.51;100344.80;105527;1276;95222;-81
2022/07/23 06:51:34;;;;;;;12.30;9.50;;;;;;;25.83;54.47;100342.31;105189;1277;140159;-80
2022/07/23 06:54:03;;;;;;;10.70;8.60;;;;;;;25.87;54.11;100337.83;105360;1276;110293;-82
2022/07/23 06:56:31;;;;;;;11.80;8.90;;;;;;;25.93;54.19;100332.77;105424;1276;140269;-82
2022/07/23 06:59:00;;;;;;;11.40;8.90;;;;;;;25.98;54.08;100333.20;105383;1276;109309;-81
2022/07/23 07:01:29;;;;;;;10.40;9.00;;;;;;;26.01;53.64;100331.45;105277;1276;96277;-81
2022/07/23 07:03:57;;;;;;;11.40;8.30;;;;;;;26.07;53.50;100330.73;105297;1276;139782;-81
2022/07/23 07:06:24;;;;;;;9.50;7.80;;;;;;;26.13;52.61;100328.88;105534;1276;109133;-81
2022/07/23 07:08:52;;;;;;;9.80;7.00;;;;;;;26.18;51.99;100327.12;105229;1276;138619;-81
2022/07/23 07:11:20;;;;;;;11.50;8.40;;;;;;;26.24;51.44;100327.05;105427;1276;107829;-81
2022/07/23 07:13:48;;;;;;;12.40;8.60;;;;;;;26.30;51.47;100324.41;105317;1276;139289;-82
2022/07/23 07:16:17;;;;;;;11.10;8.30;;;;;;;26.39;51.43;100319.55;105622;1276;95678;-79
2022/07/23 07:18:45;;;;;;;10.10;7.90;;;;;;;26.45;51.41;100322.88;105359;1276;110161;-79
2022/07/23 07:21:13;;;;;;;10.20;7.60;;;;;;;26.52;51.73;100326.12;104544;1277;140298;-84
2022/07/23 07:23:41;;;;;;;10.40;8.30;;;;;;;26.60;51.24;100318.38;105265;1276;107485;-80
2022/07/23 07:26:09;;;;;;;10.00;7.50;;;;;;;26.68;50.88;100314.47;105184;1276;138523;-82
2022/07/23 07:28:36;;;;;;;9.90;7.10;;;;;;;26.75;50.10;100308.53;105466;1276;95290;-83
2022/07/23 07:31:04;;;;;;;9.60;7.20;;;;;;;26.82;49.63;100309.11;105555;1276;108660;-83
2022/07/23 07:33:32;;;;;;;10.80;7.40;;;;;;;26.88;49.71;100307.83;105359;1276;139938;-81
2022/07/23 07:36:00;;;;;;;11.00;8.00;;;;;;;26.94;50.20;100304.50;105469;1276;108993;-83
2022/07/23 07:38:28;;;;;;;9.40;7.20;;;;;;;27.03;49.94;100302.98;105360;1276;138728;-82
2022/07/23 07:40:56;;;;;;;10.20;7.60;;;;;;;27.07;49.51;100308.55;105458;1276;95762;-82
2022/07/23 07:43:24;;;;;;;11.70;7.80;;;;;;;27.12;49.97;100313.70;105579;1276;110107;-87
2022/07/23 07:45:52;;;;;;;13.10;8.20;;;;;;;27.15;50.18;100313.02;105588;1274;138555;-80
2022/07/23 07:48:20;;;;;;;10.60;8.10;;;;;;;27.24;49.91;100316.59;106077;1276;109189;-82
2022/07/23 07:50:48;;;;;;;9.70;7.70;;;;;;;27.31;49.74;100313.53;105622;1276;140471;-84
2022/07/23 07:53:16;;;;;;;11.80;7.70;;;;;;;27.37;49.74;100318.04;105493;1274;95470;-81
2022/07/23 07:55:45;;;;;;;11.80;8.20;;;;;;;27.47;49.59;100319.21;105416;1276;137750;-82
2022/07/23 07:58:18;;;;;;;11.00;8.00;;;;;;;27.59;48.94;100318.30;105451;1276;99366;-82
2022/07/23 08:00:46;;;;;;;10.40;7.80;;;;;;;27.77;48.61;100317.92;105473;1276;108828;-82
2022/07/23 08:03:14;;;;;;;9.90;7.40;;;;;;;27.92;48.36;100323.95;105426;1276;139150;-83
2022/07/23 08:05:42;;;;;;;9.80;7.70;;;;;;;27.99;48.43;100322.86;105559;1276;95282;-81
2022/07/23 08:08:14;;;;;;;10.60;8.30;;;;;;;28.12;48.52;100327.62;105210;1276;140238;-82
2022/07/23 08:10:43;;;;;;;8.20;7.30;;;;;;;28.25;48.05;100328.33;105436;1276;98940;-83
2022/07/23 08:13:16;;;;;;;9.80;7.70;;;;;;;28.39;46.89;100326.15;105405;1276;106448;-82
2022/07/23 08:15:44;;;;;;;9.70;7.90;;;;;;;28.50;46.49;100326.08;105433;1276;140276;-82
2022/07/23 08:18:13;;;;;;;9.50;7.70;;;;;;;28.53;45.87;100321.05;105784;1276;95264;-83
2022/07/23 08:20:41;;;;;;;10.00;7.60;;;;;;;28.52;45.94;100319.08;105336;1276;139441;-82
2022/07/23 08:23:09;;;;;;;10.00;7.80;;;;;;;28.51;45.74;100315.91;105514;1276;100131;-82
2022/07/23 08:25:41;;;;;;;10.60;7.50;;;;;;;28.55;46.05;100318.61;105323;1276;139941;-81
2022/07/23 08:28:11;;;;;;;9.40;7.30;;;;;;;28.65;45.84;100320.86;105518;1276;95229;-81
2022/07/23 08:30:40;;;;;;;11.50;7.10;;;;;;;28.76;46.08;100321.29;105462;1276;95387;-81
2022/07/23 08:33:16;;;;;;;10.30;7.40;;;;;;;28.87;45.65;100313.89;105417;1277;139571;-82
2022/07/23 08:36:03;;;;;;;10.30;7.30;;;;;;;28.94;44.85;100318.84;105499;1276;100479;-82
2022/07/23 08:38:33;;;;;;;9.60;7.20;;;;;;;29.03;44.48;100320.61;105607;1276;140262;-82
2022/07/23 08:41:04;;;;;;;9.50;7.00;;;;;;;29.19;44.40;100320.58;105593;1276;95158;-81
2022/07/23 08:43:35;;;;;;;10.00;7.40;;;;;;;29.24;43.61;100325.75;105392;1276;95364;-82
2022/07/23 08:46:04;;;;;;;10.70;7.60;;;;;;;29.34;44.63;100326.46;105344;1276;110047;-81
2022/07/23 08:48:36;;;;;;;9.20;7.00;;;;;;;29.47;43.92;100323.95;105224;1276;100411;-80
2022/07/23 08:51:08;;;;;;;10.30;7.30;;;;;;;29.55;43.48;100320.96;105284;1276;138117;-81
2022/07/23 08:53:38;;;;;;;8.80;6.60;;;;;;;29.61;42.86;100323.73;105494;1276;97010;-82
2022/07/23 08:56:07;;;;;;;11.10;6.60;;;;;;;29.70;42.66;100325.36;105344;1276;139824;-82
2022/07/23 08:58:36;;;;;;;8.60;6.70;;;;;;;29.84;42.37;100320.55;105567;1276;109147;-80
2022/07/23 09:01:04;;;;;;;9.50;7.40;;;;;;;29.91;41.42;100318.52;105656;1276;99853;-82
2022/07/23 09:03:35;;;;;;;8.70;6.60;;;;;;;29.92;41.24;100313.64;105505;1276;137482;-81
2022/07/23 09:06:04;;;;;;;8.00;6.80;;;;;;;30.04;41.12;100313.97;105576;1276;95251;-80
2022/07/23 09:08:39;;;;;;;9.40;6.60;;;;;;;30.14;41.58;100314.15;105440;1276;139077;-83
2022/07/23 09:11:09;;;;;;;8.60;6.70;;;;;;;30.30;41.10;100312.24;105521;1276;110305;-82
2022/07/23 09:13:45;;;;;;;8.80;6.90;;;;;;;30.41;40.86;100307.48;105559;1276;139145;-81
2022/07/23 09:16:19;;;;;;;10.10;6.60;;;;;;;30.49;40.63;100309.05;105757;1274;109387;-81
2022/07/23 09:18:49;;;;;;;10.20;6.50;;;;;;;30.64;40.03;100307.70;105723;1276;95142;-81
2022/07/23 09:21:28;;;;;;;9.20;6.80;;;;;;;30.72;39.69;100303.75;105482;1275;140103;-84
2022/07/23 09:24:22;;;;;;;9.10;6.80;;;;;;;30.87;40.41;100305.00;105838;1276;110519;-83
2022/07/23 09:26:50;;;;;;;8.80;6.50;;;;;;;31.11;39.86;100306.70;105562;1278;140625;-83
2022/07/23 09:29:20;;;;;;;9.30;7.10;;;;;;;31.25;39.33;100305.17;105406;1277;108750;-84
2022/07/23 09:31:56;;;;;;;9.50;7.10;;;;;;;31.43;39.12;100308.23;105629;1276;137793;-83
2022/07/23 09:34:30;;;;;;;10.00;7.30;;;;;;;31.71;38.96;100308.96;105875;1276;95135;-84
2022/07/23 09:37:13;;;;;;;9.10;6.80;;;;;;;32.34;38.06;100299.19;105737;1276;110356;-82
2022/07/23 09:39:43;;;;;;;8.30;5.80;;;;;;;33.33;34.59;100294.48;106071;1276;138565;-83
2022/07/23 09:42:20;;;;;;;7.20;5.80;;;;;;;34.25;33.87;100294.73;106555;1276;109549;-82
2022/07/23 09:44:51;;;;;;;8.40;6.00;;;;;;;35.38;32.07;100295.13;106416;1276;141220;-83
2022/07/23 09:47:21;;;;;;;7.10;5.50;;;;;;;36.32;30.61;100290.07;107506;1276;93494;-85
2022/07/23 09:50:12;;;;;;;7.90;5.60;;;;;;;37.18;28.99;100286.83;107370;1276;138270;-83
2022/07/23 09:52:48;;;;;;;8.30;5.00;;;;;;;38.17;28.02;100284.33;105883;1276;99079;-83
2022/07/23 09:55:18;;;;;;;6.40;5.10;;;;;;;38.89;26.85;100279.42;105542;1276;108261;-84
2022/07/23 09:57:56;;;;;;;7.50;5.40;;;;;;;39.56;25.95;100278.02;105474;1275;140442;-81
2022/07/23 10:00:24;;;;;;;10.00;5.20;;;;;;;39.86;24.62;100283.98;105529;1276;95651;-82
2022/07/23 10:02:53;;;;;;;8.30;5.50;;;;;;;40.21;24.42;100285.16;105485;1276;140622;-83
2022/07/23 10:05:30;;;;;;;6.40;4.50;;;;;;;40.74;22.82;100280.94;105461;1276;100325;-84
2022/07/23 10:08:01;;;;;;;7.20;4.70;;;;;;;41.16;21.66;100270.48;105302;1276;140823;-85
2022/07/23 10:10:48;;;;;;;7.90;4.90;;;;;;;41.64;21.42;100277.36;105779;1276;95402;-84
2022/07/23 10:16:15;;;;;;;7.00;5.30;;;;;;;42.55;21.86;100276.98;105656;1277;109903;-82
2022/07/23 10:18:54;;;;;;;8.50;5.10;;;;;;;42.88;21.78;100275.13;105681;1276;98568;-81
2022/07/23 10:21:40;;;;;;;8.70;5.20;;;;;;;43.30;21.74;100266.29;105518;1276;137497;-84
2022/07/23 10:24:45;;;;;;;7.60;5.00;;;;;;;43.50;20.05;100268.27;105644;1276;95216;-83
2022/07/23 10:27:31;;;;;;;6.50;5.00;;;;;;;43.61;20.15;100263.58;105459;1276;137918;-86
2022/07/23 10:30:11;;;;;;;6.70;4.60;;;;;;;43.94;19.86;100263.30;105750;1276;108273;-84
2022/07/23 10:33:15;;;;;;;8.20;4.70;;;;;;;44.18;19.60;100262.06;105568;1276;139939;-84
2022/07/23 10:35:50;;;;;;;7.90;4.90;;;;;;;44.25;19.45;100264.66;105331;1276;109433;-84
2022/07/23 10:38:30;;;;;;;7.80;5.10;;;;;;;44.28;19.65;100267.33;105319;1276;139213;-85
2022/07/23 10:41:23;;;;;;;6.50;4.80;;;;;;;44.60;19.42;100267.45;105438;1276;95460;-85
2022/07/23 10:44:07;;;;;;;6.90;4.90;;;;;;;44.62;18.64;100264.44;105386;1276;140436;-85
2022/07/23 10:46:53;;;;;;;6.70;4.70;;;;;;;44.59;18.97;100264.80;105514;1277;180436;-83
2022/07/23 10:49:22;;;;;;;8.20;5.10;;;;;;;44.64;18.88;100269.21;105264;1276;108960;-85
2022/07/23 10:52:20;;;;;;;6.90;4.60;;;;;;;44.61;18.63;100268.69;105131;1276;138624;-84
2022/07/23 10:54:53;;;;;;;6.90;4.90;;;;;;;44.41;18.49;100273.21;105396;1276;95130;-83
2022/07/23 10:57:27;;;;;;;6.60;5.00;;;;;;;44.23;19.21;100270.41;105548;1276;139923;-84
2022/07/23 11:00:01;;;;;;;6.60;4.90;;;;;;;44.28;19.61;100265.80;105637;1276;100064;-84
2022/07/23 11:02:31;;;;;;;7.10;4.90;;;;;;;44.43;19.21;100261.84;105275;1276;140094;-84
2022/07/23 11:05:04;;;;;;;7.60;5.10;;;;;;;44.58;18.93;100260.41;105564;1276;95781;-85
2022/07/23 11:07:33;;;;;;;7.30;4.60;;;;;;;44.06;19.19;100257.85;105234;1276;95532;-84
2022/07/23 11:10:03;;;;;;;6.90;5.30;;;;;;;43.11;19.86;100254.20;105404;1276;110537;-84
2022/07/23 11:12:31;;;;;;;7.50;5.00;;;;;;;42.26;20.10;100253.59;105211;1276;99876;-82
2022/07/23 11:15:14;;;;;;;6.60;5.00;;;;;;;41.49;21.25;100254.19;105243;1276;140009;-84
2022/07/23 11:17:42;;;;;;;7.40;5.40;;;;;;;40.64;21.54;100260.93;105660;1276;96335;-83
2022/07/23 11:20:15;;;;;;;7.10;5.20;;;;;;;40.00;22.13;100260.79;105399;1276;138523;-84